sensor_id;sensor_type;location;lat;lon;timestamp;P1;durP1;ratioP1;P2;durP2;ratioP2
23590;SDS011;11973;52.098;7.582;2023-02-28T04:45:48;10.05;;;9.35;;
23590;SDS011;11973;52.098;7.582;2023-02-28T04:48:13;13.25;;;9.88;;
23590;SDS011;11973;52.098;7.582;2023-02-28T04:50:40;10.27;;;9.57;;
23590;SDS011;11973;52.098;7.582;2023-02-28T04:53:06;10.95;;;9.98;;
23590;SDS011;11973;52.098;7.582;2023-02-28T04:55:31;11.35;;;10.45;;
23590;SDS011;11973;52.098;7.582;2023-02-28T04:57:57;12.07;;;10.05;;
23590;SDS011;11973;52.098;7.582;2023-02-28T05:00:22;12.25;;;9.82;;
23590;SDS011;11973;52.098;7.582;2023-02-28T05:02:49;10.52;;;9.73;;
23590;SDS011;11973;52.098;7.582;2023-02-28T05:05:14;11.02;;;10.13;;
23590;SDS011;11973;52.098;7.582;2023-02-28T05:07:43;10.70;;;9.93;;
23590;SDS011;11973;52.098;7.582;2023-02-28T05:10:10;10.68;;;9.88;;
23590;SDS011;11973;52.098;7.582;2023-02-28T05:12:36;10.10;;;9.40;;
23590;SDS011;11973;52.098;7.582;2023-02-28T05:15:02;12.35;;;10.10;;
23590;SDS011;11973;52.098;7.582;2023-02-28T05:17:30;11.23;;;9.88;;
23590;SDS011;11973;52.098;7.582;2023-02-28T05:19:56;10.55;;;9.65;;
23590;SDS011;11973;52.098;7.582;2023-02-28T05:22:21;10.93;;;10.00;;
23590;SDS011;11973;52.098;7.582;2023-02-28T05:24:47;10.32;;;9.52;;
23590;SDS011;11973;52.098;7.582;2023-02-28T05:27:13;10.32;;;9.63;;
23590;SDS011;11973;52.098;7.582;2023-02-28T05:29:40;10.63;;;9.82;;
23590;SDS011;11973;52.098;7.582;2023-02-28T05:32:11;11.05;;;9.95;;
23590;SDS011;11973;52.098;7.582;2023-02-28T05:34:40;10.68;;;9.85;;
23590;SDS011;11973;52.098;7.582;2023-02-28T05:37:10;11.48;;;10.48;;
23590;SDS011;11973;52.098;7.582;2023-02-28T05:39:41;10.85;;;9.90;;
23590;SDS011;11973;52.098;7.582;2023-02-28T05:42:07;11.23;;;10.40;;
23590;SDS011;11973;52.098;7.582;2023-02-28T05:44:35;10.70;;;9.88;;
23590;SDS011;11973;52.098;7.582;2023-02-28T05:47:01;11.43;;;10.52;;
23590;SDS011;11973;52.098;7.582;2023-02-28T05:49:27;11.68;;;10.60;;
23590;SDS011;11973;52.098;7.582;2023-02-28T05:51:54;10.73;;;9.95;;
23590;SDS011;11973;52.098;7.582;2023-02-28T05:54:20;11.63;;;10.63;;
23590;SDS011;11973;52.098;7.582;2023-02-28T05:56:45;11.32;;;10.07;;
23590;SDS011;11973;52.098;7.582;2023-02-28T05:59:11;11.50;;;10.23;;
23590;SDS011;11973;52.098;7.582;2023-02-28T06:01:39;10.48;;;9.63;;
23590;SDS011;11973;52.098;7.582;2023-02-28T06:04:07;10.98;;;10.15;;
23590;SDS011;11973;52.098;7.582;2023-02-28T06:06:34;11.07;;;9.93;;
23590;SDS011;11973;52.098;7.582;2023-02-28T06:09:02;10.63;;;9.80;;
23590;SDS011;11973;52.098;7.582;2023-02-28T06:11:28;13.57;;;10.55;;
23590;SDS011;11973;52.098;7.582;2023-02-28T06:13:55;10.45;;;9.65;;
23590;SDS011;11973;52.098;7.582;2023-02-28T06:16:23;10.90;;;9.90;;
23590;SDS011;11973;52.098;7.582;2023-02-28T06:18:50;10.52;;;9.60;;
23590;SDS011;11973;52.098;7.582;2023-02-28T06:21:15;12.73;;;10.00;;
23590;SDS011;11973;52.098;7.582;2023-02-28T06:23:41;10.98;;;9.98;;
23590;SDS011;11973;52.098;7.582;2023-02-28T06:26:07;10.75;;;9.77;;
23590;SDS011;11973;52.098;7.582;2023-02-28T06:28:32;11.02;;;9.95;;
23590;SDS011;11973;52.098;7.582;2023-02-28T06:30:59;11.95;;;10.75;;
23590;SDS011;11973;52.098;7.582;2023-02-28T06:33:30;14.82;;;10.68;;
23590;SDS011;11973;52.098;7.582;2023-02-28T06:35:55;10.75;;;9.85;;
23590;SDS011;11973;52.098;7.582;2023-02-28T06:38:21;11.00;;;9.98;;
23590;SDS011;11973;52.098;7.582;2023-02-28T06:40:53;11.02;;;10.00;;
23590;SDS011;11973;52.098;7.582;2023-02-28T06:43:20;9.95;;;9.23;;
23590;SDS011;11973;52.098;7.582;2023-02-28T06:45:47;10.07;;;9.30;;
23590;SDS011;11973;52.098;7.582;2023-02-28T06:48:13;10.35;;;9.57;;
23590;SDS011;11973;52.098;7.582;2023-02-28T06:50:38;10.25;;;9.50;;
23590;SDS011;11973;52.098;7.582;2023-02-28T06:53:04;9.82;;;8.85;;
23590;SDS011;11973;52.098;7.582;2023-02-28T06:55:30;10.27;;;9.30;;
23590;SDS011;11973;52.098;7.582;2023-02-28T06:57:56;9.93;;;9.23;;
23590;SDS011;11973;52.098;7.582;2023-02-28T07:00:23;9.18;;;8.57;;
23590;SDS011;11973;52.098;7.582;2023-02-28T07:02:50;9.57;;;8.77;;
23590;SDS011;11973;52.098;7.582;2023-02-28T07:05:15;10.25;;;9.35;;
23590;SDS011;11973;52.098;7.582;2023-02-28T07:07:41;10.52;;;9.65;;
23590;SDS011;11973;52.098;7.582;2023-02-28T07:10:12;11.60;;;10.15;;
23590;SDS011;11973;52.098;7.582;2023-02-28T07:12:41;11.13;;;10.07;;
23590;SDS011;11973;52.098;7.582;2023-02-28T07:15:08;10.90;;;10.00;;
23590;SDS011;11973;52.098;7.582;2023-02-28T07:17:34;10.35;;;9.30;;
23590;SDS011;11973;52.098;7.582;2023-02-28T07:20:00;12.00;;;10.57;;
23590;SDS011;11973;52.098;7.582;2023-02-28T07:22:26;12.55;;;11.30;;
23590;SDS011;11973;52.098;7.582;2023-02-28T07:24:53;15.88;;;10.70;;
23590;SDS011;11973;52.098;7.582;2023-02-28T07:27:19;11.00;;;9.95;;
23590;SDS011;11973;52.098;7.582;2023-02-28T07:29:52;11.48;;;9.73;;
23590;SDS011;11973;52.098;7.582;2023-02-28T07:32:18;13.38;;;10.85;;
23590;SDS011;11973;52.098;7.582;2023-02-28T07:34:44;11.02;;;10.05;;
23590;SDS011;11973;52.098;7.582;2023-02-28T07:37:10;10.52;;;9.65;;
23590;SDS011;11973;52.098;7.582;2023-02-28T07:39:36;10.45;;;9.55;;
23590;SDS011;11973;52.098;7.582;2023-02-28T07:42:04;10.68;;;9.88;;
23590;SDS011;11973;52.098;7.582;2023-02-28T07:44:32;10.68;;;9.88;;
23590;SDS011;11973;52.098;7.582;2023-02-28T07:46:57;11.25;;;10.27;;
23590;SDS011;11973;52.098;7.582;2023-02-28T07:49:23;11.70;;;10.73;;
23590;SDS011;11973;52.098;7.582;2023-02-28T07:51:49;12.68;;;11.40;;
23590;SDS011;11973;52.098;7.582;2023-02-28T07:54:15;12.23;;;11.00;;
23590;SDS011;11973;52.098;7.582;2023-02-28T07:56:40;11.82;;;10.70;;
23590;SDS011;11973;52.098;7.582;2023-02-28T07:59:06;12.80;;;10.65;;
23590;SDS011;11973;52.098;7.582;2023-02-28T08:01:32;11.15;;;10.25;;
23590;SDS011;11973;52.098;7.582;2023-02-28T08:03:57;10.85;;;10.05;;
23590;SDS011;11973;52.098;7.582;2023-02-28T08:06:24;10.95;;;10.25;;
23590;SDS011;11973;52.098;7.582;2023-02-28T08:08:51;11.13;;;10.32;;
23590;SDS011;11973;52.098;7.582;2023-02-28T08:11:18;10.60;;;9.80;;
23590;SDS011;11973;52.098;7.582;2023-02-28T08:13:44;10.07;;;9.32;;
23590;SDS011;11973;52.098;7.582;2023-02-28T08:16:11;8.90;;;8.20;;
23590;SDS011;11973;52.098;7.582;2023-02-28T08:18:46;7.70;;;7.30;;
23590;SDS011;11973;52.098;7.582;2023-02-28T08:21:18;7.80;;;7.35;;
23590;SDS011;11973;52.098;7.582;2023-02-28T08:23:48;6.47;;;6.18;;
23590;SDS011;11973;52.098;7.582;2023-02-28T08:26:15;6.55;;;6.10;;
23590;SDS011;11973;52.098;7.582;2023-02-28T08:28:42;5.97;;;5.68;;
23590;SDS011;11973;52.098;7.582;2023-02-28T08:31:10;6.10;;;5.72;;
23590;SDS011;11973;52.098;7.582;2023-02-28T08:33:38;5.30;;;5.15;;
23590;SDS011;11973;52.098;7.582;2023-02-28T08:36:05;5.22;;;5.00;;
23590;SDS011;11973;52.098;7.582;2023-02-28T08:38:31;5.15;;;4.90;;
23590;SDS011;11973;52.098;7.582;2023-02-28T08:41:00;4.47;;;4.40;;
23590;SDS011;11973;52.098;7.582;2023-02-28T08:43:28;2.70;;;2.70;;
23590;SDS011;11973;52.098;7.582;2023-02-28T08:45:55;3.10;;;3.00;;
23590;SDS011;11973;52.098;7.582;2023-02-28T08:48:24;3.78;;;3.00;;
23590;SDS011;11973;52.098;7.582;2023-02-28T08:50:58;3.22;;;3.13;;
23590;SDS011;11973;52.098;7.582;2023-02-28T08:53:33;2.50;;;2.50;;
23590;SDS011;11973;52.098;7.582;2023-02-28T08:56:00;2.25;;;2.13;;
23590;SDS011;11973;52.098;7.582;2023-02-28T08:58:34;2.15;;;1.67;;
23590;SDS011;11973;52.098;7.582;2023-02-28T09:01:00;1.13;;;1.13;;
23590;SDS011;11973;52.098;7.582;2023-02-28T09:03:33;0.90;;;0.90;;
23590;SDS011;11973;52.098;7.582;2023-02-28T09:05:59;1.20;;;1.20;;
23590;SDS011;11973;52.098;7.582;2023-02-28T09:08:26;0.90;;;0.90;;
23590;SDS011;11973;52.098;7.582;2023-02-28T09:10:53;0.90;;;0.90;;
23590;SDS011;11973;52.098;7.582;2023-02-28T09:13:22;1.10;;;1.10;;
23590;SDS011;11973;52.098;7.582;2023-02-28T09:15:48;1.20;;;1.20;;
23590;SDS011;11973;52.098;7.582;2023-02-28T09:18:14;1.30;;;1.30;;
23590;SDS011;11973;52.098;7.582;2023-02-28T09:20:40;1.10;;;1.10;;
23590;SDS011;11973;52.098;7.582;2023-02-28T09:23:07;1.60;;;1.50;;
23590;SDS011;11973;52.098;7.582;2023-02-28T09:25:34;1.23;;;1.23;;
23590;SDS011;11973;52.098;7.582;2023-02-28T09:28:00;1.38;;;1.20;;
23590;SDS011;11973;52.098;7.582;2023-02-28T09:30:26;1.15;;;1.15;;
23590;SDS011;11973;52.098;7.582;2023-02-28T09:32:52;1.85;;;1.25;;
23590;SDS011;11973;52.098;7.582;2023-02-28T09:35:22;1.42;;;1.42;;
23590;SDS011;11973;52.098;7.582;2023-02-28T09:37:50;4.22;;;4.03;;
23590;SDS011;11973;52.098;7.582;2023-02-28T09:40:17;0.80;;;0.80;;
23590;SDS011;11973;52.098;7.582;2023-02-28T09:42:49;0.70;;;0.70;;
23590;SDS011;11973;52.098;7.582;2023-02-28T09:47:47;1.00;;;1.00;;
23590;SDS011;11973;52.098;7.582;2023-02-28T09:50:32;0.80;;;0.80;;
23590;SDS011;11973;52.098;7.582;2023-02-28T09:53:35;0.60;;;0.60;;
23590;SDS011;11973;52.098;7.582;2023-02-28T09:56:08;0.70;;;0.70;;
23590;SDS011;11973;52.098;7.582;2023-02-28T10:01:54;0.50;;;0.50;;
23590;SDS011;11973;52.098;7.582;2023-02-28T10:07:22;0.50;;;0.50;;
23590;SDS011;11973;52.098;7.582;2023-02-28T10:10:19;0.88;;;0.60;;
23590;SDS011;11973;52.098;7.582;2023-02-28T10:12:54;0.57;;;0.57;;
23590;SDS011;11973;52.098;7.582;2023-02-28T10:15:24;1.13;;;0.77;;
23590;SDS011;11973;52.098;7.582;2023-02-28T10:18:12;1.50;;;0.60;;
23590;SDS011;11973;52.098;7.582;2023-02-28T10:20:41;0.40;;;0.40;;
23590;SDS011;11973;52.098;7.582;2023-02-28T10:25:35;0.50;;;0.50;;
23590;SDS011;11973;52.098;7.582;2023-02-28T10:28:09;0.55;;;0.55;;
23590;SDS011;11973;52.098;7.582;2023-02-28T10:30:36;0.60;;;0.60;;
23590;SDS011;11973;52.098;7.582;2023-02-28T10:33:13;1.00;;;0.50;;
23590;SDS011;11973;52.098;7.582;2023-02-28T10:35:43;0.47;;;0.47;;
23590;SDS011;11973;52.098;7.582;2023-02-28T10:38:14;0.40;;;0.40;;
23590;SDS011;11973;52.098;7.582;2023-02-28T10:40:45;1.10;;;0.60;;
23590;SDS011;11973;52.098;7.582;2023-02-28T10:45:51;0.50;;;0.50;;
23590;SDS011;11973;52.098;7.582;2023-02-28T10:48:57;0.50;;;0.50;;
23590;SDS011;11973;52.098;7.582;2023-02-28T10:51:37;0.63;;;0.63;;
23590;SDS011;11973;52.098;7.582;2023-02-28T10:54:05;0.85;;;0.85;;
23590;SDS011;11973;52.098;7.582;2023-02-28T10:56:39;0.60;;;0.60;;
23590;SDS011;11973;52.098;7.582;2023-02-28T11:01:44;0.50;;;0.50;;
23590;SDS011;11973;52.098;7.582;2023-02-28T11:07:18;0.60;;;0.60;;
23590;SDS011;11973;52.098;7.582;2023-02-28T11:09:46;0.73;;;0.60;;
23590;SDS011;11973;52.098;7.582;2023-02-28T11:15:14;0.45;;;0.45;;
23590;SDS011;11973;52.098;7.582;2023-02-28T11:17:54;0.60;;;0.60;;
23590;SDS011;11973;52.098;7.582;2023-02-28T11:20:24;0.40;;;0.40;;
23590;SDS011;11973;52.098;7.582;2023-02-28T11:22:53;0.60;;;0.60;;
23590;SDS011;11973;52.098;7.582;2023-02-28T11:25:26;0.60;;;0.60;;
23590;SDS011;11973;52.098;7.582;2023-02-28T11:27:59;0.70;;;0.70;;
23590;SDS011;11973;52.098;7.582;2023-02-28T11:30:38;0.70;;;0.70;;
23590;SDS011;11973;52.098;7.582;2023-02-28T11:33:18;0.63;;;0.60;;
23590;SDS011;11973;52.098;7.582;2023-02-28T11:35:55;0.60;;;0.60;;
23590;SDS011;11973;52.098;7.582;2023-02-28T11:38:27;0.60;;;0.60;;
23590;SDS011;11973;52.098;7.582;2023-02-28T11:51:44;0.80;;;0.80;;
23590;SDS011;11973;52.098;7.582;2023-02-28T12:00:15;0.85;;;0.60;;
23590;SDS011;11973;52.098;7.582;2023-02-28T12:05:22;0.80;;;0.80;;
23590;SDS011;11973;52.098;7.582;2023-02-28T12:10:27;0.60;;;0.60;;
23590;SDS011;11973;52.098;7.582;2023-02-28T12:28:47;1.00;;;1.00;;
23590;SDS011;11973;52.098;7.582;2023-02-28T12:31:38;0.77;;;0.77;;
23590;SDS011;11973;52.098;7.582;2023-02-28T12:34:44;0.63;;;0.63;;
23590;SDS011;11973;52.098;7.582;2023-02-28T12:40:16;0.88;;;0.88;;
23590;SDS011;11973;52.098;7.582;2023-02-28T12:42:47;1.35;;;1.00;;
23590;SDS011;11973;52.098;7.582;2023-02-28T12:47:48;1.10;;;0.93;;
23590;SDS011;11973;52.098;7.582;2023-02-28T12:50:19;1.02;;;1.02;;
23590;SDS011;11973;52.098;7.582;2023-02-28T12:58:20;1.00;;;1.00;;
23590;SDS011;11973;52.098;7.582;2023-02-28T13:01:13;1.02;;;1.02;;
23590;SDS011;11973;52.098;7.582;2023-02-28T13:07:08;0.70;;;0.70;;
23590;SDS011;11973;52.098;7.582;2023-02-28T13:09:39;1.10;;;1.10;;
23590;SDS011;11973;52.098;7.582;2023-02-28T13:12:12;1.23;;;1.23;;
23590;SDS011;11973;52.098;7.582;2023-02-28T13:14:40;0.90;;;0.90;;
23590;SDS011;11973;52.098;7.582;2023-02-28T13:19:35;1.17;;;1.17;;
23590;SDS011;11973;52.098;7.582;2023-02-28T13:22:20;0.88;;;0.88;;
23590;SDS011;11973;52.098;7.582;2023-02-28T13:25:01;1.20;;;1.20;;
23590;SDS011;11973;52.098;7.582;2023-02-28T13:27:37;0.90;;;0.90;;
23590;SDS011;11973;52.098;7.582;2023-02-28T13:44:05;1.10;;;1.10;;
23590;SDS011;11973;52.098;7.582;2023-02-28T13:59:55;1.15;;;1.15;;
23590;SDS011;11973;52.098;7.582;2023-02-28T14:02:47;1.00;;;1.00;;
23590;SDS011;11973;52.098;7.582;2023-02-28T14:05:29;1.10;;;1.10;;
23590;SDS011;11973;52.098;7.582;2023-02-28T14:07:58;1.10;;;1.10;;
23590;SDS011;11973;52.098;7.582;2023-02-28T14:10:35;1.10;;;1.10;;
23590;SDS011;11973;52.098;7.582;2023-02-28T14:16:00;1.23;;;1.23;;
23590;SDS011;11973;52.098;7.582;2023-02-28T14:18:33;1.15;;;1.15;;
23590;SDS011;11973;52.098;7.582;2023-02-28T14:32:21;1.05;;;1.05;;
23590;SDS011;11973;52.098;7.582;2023-02-28T14:37:48;1.20;;;1.20;;
23590;SDS011;11973;52.098;7.582;2023-02-28T14:40:15;1.20;;;1.20;;
23590;SDS011;11973;52.098;7.582;2023-02-28T14:43:06;1.60;;;1.60;;
23590;SDS011;11973;52.098;7.582;2023-02-28T14:45:48;1.58;;;1.58;;
23590;SDS011;11973;52.098;7.582;2023-02-28T14:48:22;1.70;;;1.70;;
23590;SDS011;11973;52.098;7.582;2023-02-28T14:50:51;1.08;;;1.08;;
23590;SDS011;11973;52.098;7.582;2023-02-28T14:53:19;1.50;;;1.40;;
23590;SDS011;11973;52.098;7.582;2023-02-28T14:55:47;1.13;;;1.13;;
23590;SDS011;11973;52.098;7.582;2023-02-28T15:00:57;1.20;;;1.20;;
23590;SDS011;11973;52.098;7.582;2023-02-28T15:06:02;1.52;;;1.52;;
23590;SDS011;11973;52.098;7.582;2023-02-28T15:08:30;1.40;;;1.40;;
23590;SDS011;11973;52.098;7.582;2023-02-28T15:11:04;1.10;;;1.10;;
23590;SDS011;11973;52.098;7.582;2023-02-28T15:13:38;1.33;;;1.33;;
23590;SDS011;11973;52.098;7.582;2023-02-28T15:16:25;1.67;;;1.67;;
23590;SDS011;11973;52.098;7.582;2023-02-28T15:18:59;1.67;;;1.67;;
23590;SDS011;11973;52.098;7.582;2023-02-28T15:21:38;1.50;;;1.50;;
23590;SDS011;11973;52.098;7.582;2023-02-28T15:26:40;2.08;;;1.25;;
23590;SDS011;11973;52.098;7.582;2023-02-28T15:29:19;1.60;;;1.60;;
23590;SDS011;11973;52.098;7.582;2023-02-28T15:31:58;1.55;;;1.55;;
23590;SDS011;11973;52.098;7.582;2023-02-28T15:34:29;1.50;;;1.50;;
23590;SDS011;11973;52.098;7.582;2023-02-28T15:37:06;1.40;;;1.40;;
23590;SDS011;11973;52.098;7.582;2023-02-28T15:39:53;1.58;;;1.30;;
23590;SDS011;11973;52.098;7.582;2023-02-28T15:42:21;1.35;;;1.35;;
23590;SDS011;11973;52.098;7.582;2023-02-28T15:44:48;1.73;;;1.60;;
23590;SDS011;11973;52.098;7.582;2023-02-28T15:47:24;3.20;;;3.10;;
23590;SDS011;11973;52.098;7.582;2023-02-28T15:49:53;2.90;;;2.90;;
23590;SDS011;11973;52.098;7.582;2023-02-28T15:52:26;1.52;;;1.52;;
23590;SDS011;11973;52.098;7.582;2023-02-28T15:54:58;5.13;;;5.03;;
23590;SDS011;11973;52.098;7.582;2023-02-28T15:57:31;4.00;;;3.90;;
23590;SDS011;11973;52.098;7.582;2023-02-28T15:59:58;1.80;;;1.80;;
23590;SDS011;11973;52.098;7.582;2023-02-28T16:02:37;1.52;;;1.52;;
23590;SDS011;11973;52.098;7.582;2023-02-28T16:07:38;1.50;;;1.50;;
23590;SDS011;11973;52.098;7.582;2023-02-28T16:10:06;1.42;;;1.42;;
23590;SDS011;11973;52.098;7.582;2023-02-28T16:12:33;1.50;;;1.50;;
23590;SDS011;11973;52.098;7.582;2023-02-28T16:15:02;1.77;;;1.77;;
23590;SDS011;11973;52.098;7.582;2023-02-28T16:17:36;2.70;;;2.60;;
23590;SDS011;11973;52.098;7.582;2023-02-28T16:20:13;1.30;;;1.30;;
23590;SDS011;11973;52.098;7.582;2023-02-28T16:22:44;1.20;;;1.20;;
23590;SDS011;11973;52.098;7.582;2023-02-28T16:25:17;1.73;;;1.73;;
23590;SDS011;11973;52.098;7.582;2023-02-28T16:27:50;1.80;;;1.80;;
23590;SDS011;11973;52.098;7.582;2023-02-28T16:30:28;1.63;;;1.63;;
23590;SDS011;11973;52.098;7.582;2023-02-28T16:32:57;1.80;;;1.80;;
23590;SDS011;11973;52.098;7.582;2023-02-28T16:35:23;1.42;;;1.42;;
23590;SDS011;11973;52.098;7.582;2023-02-28T16:37:53;1.95;;;1.85;;
23590;SDS011;11973;52.098;7.582;2023-02-28T16:40:20;1.67;;;1.67;;
23590;SDS011;11973;52.098;7.582;2023-02-28T16:42:52;2.45;;;2.45;;
23590;SDS011;11973;52.098;7.582;2023-02-28T16:45:21;1.73;;;1.73;;
23590;SDS011;11973;52.098;7.582;2023-02-28T16:47:51;1.92;;;1.92;;
23590;SDS011;11973;52.098;7.582;2023-02-28T16:50:19;2.85;;;2.85;;
23590;SDS011;11973;52.098;7.582;2023-02-28T16:52:46;3.40;;;3.30;;
23590;SDS011;11973;52.098;7.582;2023-02-28T16:55:12;2.33;;;2.22;;
23590;SDS011;11973;52.098;7.582;2023-02-28T16:57:38;2.60;;;2.60;;
23590;SDS011;11973;52.098;7.582;2023-02-28T17:00:05;2.85;;;2.75;;
23590;SDS011;11973;52.098;7.582;2023-02-28T17:02:33;2.80;;;2.70;;
23590;SDS011;11973;52.098;7.582;2023-02-28T17:04:59;2.40;;;2.30;;
23590;SDS011;11973;52.098;7.582;2023-02-28T17:07:25;3.30;;;3.22;;
23590;SDS011;11973;52.098;7.582;2023-02-28T17:09:51;3.13;;;2.92;;
23590;SDS011;11973;52.098;7.582;2023-02-28T17:12:17;2.78;;;2.78;;
23590;SDS011;11973;52.098;7.582;2023-02-28T17:14:42;3.28;;;3.20;;
23590;SDS011;11973;52.098;7.582;2023-02-28T17:17:10;3.60;;;3.60;;
23590;SDS011;11973;52.098;7.582;2023-02-28T17:19:43;3.88;;;3.80;;
23590;SDS011;11973;52.098;7.582;2023-02-28T17:22:09;3.58;;;3.50;;
23590;SDS011;11973;52.098;7.582;2023-02-28T17:24:35;5.43;;;5.22;;
23590;SDS011;11973;52.098;7.582;2023-02-28T17:27:01;7.35;;;6.70;;
23590;SDS011;11973;52.098;7.582;2023-02-28T17:29:27;5.50;;;5.03;;
23590;SDS011;11973;52.098;7.582;2023-02-28T17:31:53;3.70;;;3.65;;
23590;SDS011;11973;52.098;7.582;2023-02-28T17:34:18;3.70;;;3.50;;
23590;SDS011;11973;52.098;7.582;2023-02-28T17:36:49;3.08;;;3.08;;
23590;SDS011;11973;52.098;7.582;2023-02-28T17:39:16;3.00;;;3.00;;
23590;SDS011;11973;52.098;7.582;2023-02-28T17:41:52;3.03;;;2.92;;
23590;SDS011;11973;52.098;7.582;2023-02-28T17:44:20;3.20;;;3.13;;
23590;SDS011;11973;52.098;7.582;2023-02-28T17:46:46;3.03;;;3.03;;
23590;SDS011;11973;52.098;7.582;2023-02-28T17:49:13;3.40;;;3.28;;
23590;SDS011;11973;52.098;7.582;2023-02-28T17:51:38;3.88;;;3.72;;
23590;SDS011;11973;52.098;7.582;2023-02-28T17:54:04;3.60;;;3.50;;
23590;SDS011;11973;52.098;7.582;2023-02-28T17:56:30;4.10;;;4.10;;
23590;SDS011;11973;52.098;7.582;2023-02-28T17:58:56;4.82;;;4.60;;
23590;SDS011;11973;52.098;7.582;2023-02-28T18:01:22;5.05;;;4.78;;
23590;SDS011;11973;52.098;7.582;2023-02-28T18:03:53;4.53;;;4.32;;
23590;SDS011;11973;52.098;7.582;2023-02-28T18:06:20;5.90;;;5.60;;
23590;SDS011;11973;52.098;7.582;2023-02-28T18:08:49;5.53;;;5.38;;
23590;SDS011;11973;52.098;7.582;2023-02-28T18:11:19;6.93;;;6.53;;
23590;SDS011;11973;52.098;7.582;2023-02-28T18:13:47;6.20;;;5.97;;
23590;SDS011;11973;52.098;7.582;2023-02-28T18:16:14;5.53;;;5.43;;
23590;SDS011;11973;52.098;7.582;2023-02-28T18:18:41;5.13;;;4.93;;
23590;SDS011;11973;52.098;7.582;2023-02-28T18:21:07;5.55;;;5.45;;
23590;SDS011;11973;52.098;7.582;2023-02-28T18:23:34;4.80;;;4.60;;
23590;SDS011;11973;52.098;7.582;2023-02-28T18:26:00;5.75;;;5.40;;
23590;SDS011;11973;52.098;7.582;2023-02-28T18:28:26;5.35;;;5.20;;
23590;SDS011;11973;52.098;7.582;2023-02-28T18:30:52;5.30;;;5.20;;
23590;SDS011;11973;52.098;7.582;2023-02-28T18:33:17;4.68;;;4.57;;
23590;SDS011;11973;52.098;7.582;2023-02-28T18:35:44;5.18;;;5.07;;
23590;SDS011;11973;52.098;7.582;2023-02-28T18:38:12;4.47;;;4.25;;
23590;SDS011;11973;52.098;7.582;2023-02-28T18:40:39;5.47;;;5.38;;
23590;SDS011;11973;52.098;7.582;2023-02-28T18:43:06;5.35;;;5.15;;
23590;SDS011;11973;52.098;7.582;2023-02-28T18:45:37;5.72;;;5.43;;
23590;SDS011;11973;52.098;7.582;2023-02-28T18:48:05;6.55;;;6.15;;
23590;SDS011;11973;52.098;7.582;2023-02-28T18:50:36;5.95;;;5.80;;
23590;SDS011;11973;52.098;7.582;2023-02-28T18:53:02;6.38;;;6.10;;
23590;SDS011;11973;52.098;7.582;2023-02-28T18:55:30;6.10;;;5.88;;
23590;SDS011;11973;52.098;7.582;2023-02-28T18:57:56;7.75;;;6.32;;
23590;SDS011;11973;52.098;7.582;2023-02-28T19:00:22;7.63;;;7.22;;
23590;SDS011;11973;52.098;7.582;2023-02-28T19:02:50;7.15;;;6.65;;
23590;SDS011;11973;52.098;7.582;2023-02-28T19:05:17;7.30;;;6.90;;
23590;SDS011;11973;52.098;7.582;2023-02-28T19:07:44;8.57;;;7.80;;
23590;SDS011;11973;52.098;7.582;2023-02-28T19:10:10;7.03;;;6.63;;
23590;SDS011;11973;52.098;7.582;2023-02-28T19:12:37;6.82;;;6.45;;
23590;SDS011;11973;52.098;7.582;2023-02-28T19:15:06;6.40;;;6.18;;
23590;SDS011;11973;52.098;7.582;2023-02-28T19:17:33;5.45;;;5.28;;
23590;SDS011;11973;52.098;7.582;2023-02-28T19:19:58;5.53;;;5.30;;
23590;SDS011;11973;52.098;7.582;2023-02-28T19:22:24;6.22;;;5.93;;
23590;SDS011;11973;52.098;7.582;2023-02-28T19:24:50;5.05;;;4.95;;
23590;SDS011;11973;52.098;7.582;2023-02-28T19:27:17;5.03;;;4.82;;
23590;SDS011;11973;52.098;7.582;2023-02-28T19:29:46;5.05;;;4.88;;
23590;SDS011;11973;52.098;7.582;2023-02-28T19:32:14;6.15;;;5.85;;
23590;SDS011;11973;52.098;7.582;2023-02-28T19:34:40;6.50;;;5.97;;
23590;SDS011;11973;52.098;7.582;2023-02-28T19:37:07;6.53;;;5.78;;
23590;SDS011;11973;52.098;7.582;2023-02-28T19:39:33;6.43;;;6.03;;
23590;SDS011;11973;52.098;7.582;2023-02-28T19:42:12;7.50;;;6.88;;
23590;SDS011;11973;52.098;7.582;2023-02-28T19:44:43;7.22;;;6.82;;
23590;SDS011;11973;52.098;7.582;2023-02-28T19:47:09;6.32;;;5.88;;
23590;SDS011;11973;52.098;7.582;2023-02-28T19:49:36;6.35;;;5.97;;
23590;SDS011;11973;52.098;7.582;2023-02-28T19:52:02;6.57;;;6.28;;
23590;SDS011;11973;52.098;7.582;2023-02-28T19:54:28;5.75;;;5.47;;
23590;SDS011;11973;52.098;7.582;2023-02-28T19:56:55;5.97;;;5.68;;
23590;SDS011;11973;52.098;7.582;2023-02-28T19:59:25;6.43;;;5.95;;
23590;SDS011;11973;52.098;7.582;2023-02-28T20:01:52;7.80;;;7.18;;
23590;SDS011;11973;52.098;7.582;2023-02-28T20:04:20;9.93;;;9.13;;
23590;SDS011;11973;52.098;7.582;2023-02-28T20:06:47;9.93;;;9.15;;
23590;SDS011;11973;52.098;7.582;2023-02-28T20:09:13;9.82;;;8.85;;
23590;SDS011;11973;52.098;7.582;2023-02-28T20:11:40;11.10;;;9.98;;
23590;SDS011;11973;52.098;7.582;2023-02-28T20:14:07;10.25;;;9.30;;
23590;SDS011;11973;52.098;7.582;2023-02-28T20:16:33;8.18;;;7.68;;
23590;SDS011;11973;52.098;7.582;2023-02-28T20:18:59;8.80;;;8.20;;
23590;SDS011;11973;52.098;7.582;2023-02-28T20:21:25;9.77;;;9.00;;
23590;SDS011;11973;52.098;7.582;2023-02-28T20:23:50;10.27;;;9.38;;
23590;SDS011;11973;52.098;7.582;2023-02-28T20:26:16;10.82;;;9.77;;
23590;SDS011;11973;52.098;7.582;2023-02-28T20:28:44;9.48;;;8.70;;
23590;SDS011;11973;52.098;7.582;2023-02-28T20:31:14;9.43;;;8.82;;
23590;SDS011;11973;52.098;7.582;2023-02-28T20:33:42;9.07;;;8.48;;
23590;SDS011;11973;52.098;7.582;2023-02-28T20:36:08;8.07;;;7.53;;
23590;SDS011;11973;52.098;7.582;2023-02-28T20:38:35;8.45;;;8.00;;
23590;SDS011;11973;52.098;7.582;2023-02-28T20:41:01;6.90;;;6.60;;
23590;SDS011;11973;52.098;7.582;2023-02-28T20:43:27;9.65;;;9.00;;
23590;SDS011;11973;52.098;7.582;2023-02-28T20:45:54;9.38;;;8.77;;
23590;SDS011;11973;52.098;7.582;2023-02-28T20:48:23;10.48;;;9.68;;
23590;SDS011;11973;52.098;7.582;2023-02-28T20:50:49;9.35;;;8.73;;
23590;SDS011;11973;52.098;7.582;2023-02-28T20:53:16;8.65;;;8.15;;
23590;SDS011;11973;52.098;7.582;2023-02-28T20:58:20;8.73;;;8.23;;
23590;SDS011;11973;52.098;7.582;2023-02-28T21:00:48;7.05;;;6.70;;
23590;SDS011;11973;52.098;7.582;2023-02-28T21:03:14;7.65;;;7.20;;
23590;SDS011;11973;52.098;7.582;2023-02-28T21:05:40;7.07;;;6.68;;
23590;SDS011;11973;52.098;7.582;2023-02-28T21:08:06;7.35;;;7.00;;
23590;SDS011;11973;52.098;7.582;2023-02-28T21:10:31;6.88;;;6.65;;
23590;SDS011;11973;52.098;7.582;2023-02-28T21:12:57;7.97;;;7.53;;
23590;SDS011;11973;52.098;7.582;2023-02-28T21:15:23;8.15;;;7.65;;
23590;SDS011;11973;52.098;7.582;2023-02-28T21:17:49;8.02;;;7.53;;
23590;SDS011;11973;52.098;7.582;2023-02-28T21:20:15;10.32;;;9.57;;
23590;SDS011;11973;52.098;7.582;2023-02-28T21:22:49;9.43;;;8.73;;
23590;SDS011;11973;52.098;7.582;2023-02-28T21:25:16;9.23;;;8.52;;
23590;SDS011;11973;52.098;7.582;2023-02-28T21:27:42;9.02;;;8.52;;
23590;SDS011;11973;52.098;7.582;2023-02-28T21:30:08;9.75;;;9.15;;
23590;SDS011;11973;52.098;7.582;2023-02-28T21:32:34;9.40;;;8.70;;
23590;SDS011;11973;52.098;7.582;2023-02-28T21:35:00;9.25;;;8.75;;
23590;SDS011;11973;52.098;7.582;2023-02-28T21:37:27;9.50;;;8.80;;
23590;SDS011;11973;52.098;7.582;2023-02-28T21:39:53;9.95;;;9.25;;
23590;SDS011;11973;52.098;7.582;2023-02-28T21:42:19;10.18;;;9.32;;
23590;SDS011;11973;52.098;7.582;2023-02-28T21:44:44;10.65;;;9.65;;
23590;SDS011;11973;52.098;7.582;2023-02-28T21:47:10;11.05;;;10.25;;
23590;SDS011;11973;52.098;7.582;2023-02-28T21:49:36;12.50;;;11.50;;
23590;SDS011;11973;52.098;7.582;2023-02-28T21:52:03;12.95;;;11.82;;
23590;SDS011;11973;52.098;7.582;2023-02-28T21:54:29;13.73;;;12.48;;